createdAt,value
2018-11-04T00:04:17.803Z,42.53
2018-11-04T00:14:19.051Z,43.90
2018-11-04T00:24:20.290Z,34.27
2018-11-04T00:34:21.584Z,37.73
2018-11-04T00:44:22.846Z,31.23
2018-11-04T00:54:24.886Z,33.30
2018-11-04T01:04:26.155Z,31.43
2018-11-04T01:14:27.519Z,31.27
2018-11-04T01:24:28.900Z,31.93
2018-11-04T01:34:30.103Z,34.73
2018-11-04T01:44:31.407Z,34.67
2018-11-04T01:54:32.658Z,35.70
2018-11-04T02:04:33.927Z,32.37
2018-11-04T02:14:35.162Z,43.73
2018-11-04T02:24:36.422Z,39.53
2018-11-04T02:34:38.479Z,37.30
2018-11-04T02:44:39.769Z,40.23
2018-11-04T02:54:41.048Z,60.87
2018-11-04T03:04:43.244Z,56.53
2018-11-04T03:14:44.494Z,63.47
2018-11-04T03:24:45.867Z,63.30
2018-11-04T03:34:47.049Z,63.70
2018-11-04T03:44:48.312Z,62.93
2018-11-04T03:54:50.624Z,66.27
2018-11-04T04:04:51.867Z,58.97
2018-11-04T04:14:53.262Z,71.80
2018-11-04T04:24:54.566Z,71.67
2018-11-04T04:34:55.839Z,59.90
2018-11-04T04:44:57.106Z,51.93
2018-11-04T04:54:58.384Z,57.30
2018-11-04T05:04:59.668Z,62.93
2018-11-04T05:15:00.954Z,62.03
2018-11-04T05:25:02.225Z,61.90
2018-11-04T05:35:03.481Z,63.10
2018-11-04T05:45:04.730Z,51.87
2018-11-04T05:55:05.990Z,42.90
2018-11-04T06:05:07.265Z,52.33
2018-11-04T06:15:08.549Z,55.60
2018-11-04T06:25:09.822Z,40.77
2018-11-04T06:35:11.089Z,38.17
2018-11-04T06:45:13.221Z,35.87
2018-11-04T06:55:14.505Z,37.93
2018-11-04T07:05:15.751Z,50.97
2018-11-04T07:15:17.030Z,52.30
2018-11-04T07:25:18.335Z,51.40
2018-11-04T07:35:19.595Z,48.60
2018-11-04T07:45:20.831Z,52.77
2018-11-04T07:55:25.524Z,48.03
2018-11-04T08:05:27.586Z,47.33
2018-11-04T08:15:28.881Z,46.23
2018-11-04T08:25:30.176Z,35.70
2018-11-04T08:35:31.454Z,46.57
2018-11-04T08:45:32.768Z,44.87
2018-11-04T08:55:34.159Z,45.30
2018-11-04T09:05:35.428Z,52.63
2018-11-04T09:15:36.699Z,49.80
2018-11-04T09:25:37.965Z,56.27
2018-11-04T09:35:39.308Z,51.90
2018-11-04T09:45:41.295Z,53.83
2018-11-04T09:55:42.618Z,48.23
2018-11-04T10:05:43.881Z,47.93
2018-11-04T10:15:45.178Z,52.07
2018-11-04T10:25:46.483Z,52.23
2018-11-04T10:35:47.763Z,52.83
2018-11-04T10:45:49.010Z,54.00
2018-11-04T10:55:50.301Z,52.37
2018-11-04T11:05:51.587Z,58.90
2018-11-04T11:15:52.842Z,52.60
2018-11-04T11:25:54.106Z,49.53
2018-11-04T11:35:56.166Z,48.27
2018-11-04T11:45:57.486Z,50.57
2018-11-04T11:55:58.758Z,50.63
2018-11-04T12:06:01.167Z,48.10
2018-11-04T12:16:02.486Z,42.70
2018-11-04T12:26:03.828Z,38.63
2018-11-04T12:36:05.087Z,37.30
2018-11-04T12:46:06.327Z,34.17
2018-11-04T12:56:07.574Z,30.23
2018-11-04T13:06:09.393Z,34.10
2018-11-04T13:16:10.850Z,31.47
2018-11-04T13:26:12.154Z,36.97
2018-11-04T13:36:13.541Z,29.60
2018-11-04T13:46:17.280Z,30.43
2018-11-04T13:56:18.926Z,34.03
2018-11-04T14:06:20.216Z,32.40
2018-11-04T14:16:23.083Z,29.57
2018-11-04T14:26:25.144Z,33.83
2018-11-04T14:36:26.424Z,30.23
2018-11-04T14:46:27.691Z,36.40
2018-11-04T14:56:29.730Z,33.43
2018-11-04T15:06:31.155Z,33.30
2018-11-04T15:16:32.466Z,37.47
2018-11-04T15:26:33.871Z,38.20
2018-11-04T15:36:35.436Z,42.73
2018-11-04T15:46:37.836Z,35.77
2018-11-04T15:56:39.895Z,39.53
2018-11-04T16:06:41.328Z,39.13
2018-11-04T16:16:43.482Z,41.23
2018-11-04T16:26:44.769Z,36.77
2018-11-04T16:36:46.037Z,42.87
2018-11-04T16:46:47.331Z,46.03
2018-11-04T16:56:48.590Z,50.20
2018-11-04T17:06:50.130Z,49.67
2018-11-04T17:16:51.487Z,52.10
2018-11-04T17:26:56.051Z,53.13
2018-11-04T17:36:57.410Z,51.90
2018-11-04T17:46:59.569Z,58.30
2018-11-04T17:57:00.864Z,57.00
2018-11-04T18:07:02.700Z,59.40
2018-11-04T18:17:04.057Z,64.37
2018-11-04T18:27:05.406Z,69.70
2018-11-04T18:37:06.783Z,67.60
2018-11-04T18:47:08.128Z,69.97
2018-11-04T18:57:10.194Z,60.83
2018-11-04T19:07:11.589Z,67.77
2018-11-04T19:17:12.968Z,66.97
2018-11-04T19:27:14.272Z,60.00
2018-11-04T19:47:22.775Z,56.97
2018-11-04T19:57:24.068Z,65.03
2018-11-04T20:07:25.367Z,64.17
2018-11-04T20:17:26.654Z,59.83
2018-11-04T20:27:27.917Z,63.17
2018-11-04T20:37:30.023Z,63.37
2018-11-04T20:47:31.251Z,64.70
2018-11-04T20:57:32.582Z,70.70
2018-11-04T21:07:33.860Z,75.50
2018-11-04T21:17:35.689Z,70.83
2018-11-04T21:27:36.991Z,66.47
2018-11-04T21:37:38.286Z,74.80
2018-11-04T21:47:39.553Z,78.03
2018-11-04T21:57:40.838Z,80.03
2018-11-04T22:07:42.150Z,83.77
2018-11-04T22:17:43.425Z,89.30
2018-11-04T22:27:44.691Z,93.77
2018-11-04T22:37:45.960Z,101.10
2018-11-04T22:47:47.234Z,91.67
2018-11-04T22:57:48.502Z,91.93
2018-11-04T23:07:49.770Z,91.40
2018-11-04T23:17:51.829Z,78.17
2018-11-04T23:27:53.095Z,83.57
2018-11-04T23:37:54.369Z,78.80
2018-11-04T23:47:55.659Z,79.97
2018-11-04T23:57:56.955Z,78.40
